APG530 RPVM-RPVI
Flight info
| Callsign | APG530 |
|---|---|
| Flight time | 0h 23m |
| Altitude | 20000 |
| Route | PARAO W6A KADSO |
| Aircraft | A320/M-SDE3FGHIRWY/LB1 |
Departure
| Time | 2026-04-16 13:04 |
|---|---|
| Airport | Mactan Cebu International Airport (RPVM) |
Arrival
| Time | 2026-04-16 13:28 |
|---|---|
| Airport | Iloilo International Airport (RPVI) |
| Time | Latitude | Longitude | Altitude | Speed | Heading |
|---|---|---|---|---|---|
| 2026-04-16 12:42 | 10.31406 | 123.97835 | 36 ft | 0 kts | 315° |
| 2026-04-16 12:54 | 10.31403 | 123.97837 | 36 ft | 2 kts | 315° |
| 2026-04-16 12:54 | 10.31392 | 123.97848 | 36 ft | 2 kts | 315° |
| 2026-04-16 12:54 | 10.31382 | 123.97858 | 36 ft | 2 kts | 315° |
| 2026-04-16 12:55 | 10.31371 | 123.97870 | 36 ft | 2 kts | 298° |
| 2026-04-16 12:55 | 10.31367 | 123.97884 | 36 ft | 2 kts | 272° |
| 2026-04-16 12:55 | 10.31369 | 123.97900 | 36 ft | 2 kts | 247° |
| 2026-04-16 12:55 | 10.31377 | 123.97913 | 36 ft | 2 kts | 221° |
| 2026-04-16 12:56 | 10.31389 | 123.97922 | 36 ft | 2 kts | 226° |
| 2026-04-16 12:56 | 10.31399 | 123.97933 | 36 ft | 2 kts | 224° |
| 2026-04-16 12:56 | 10.31404 | 123.97938 | 36 ft | 0 kts | 225° |
| 2026-04-16 12:58 | 10.31403 | 123.97937 | 36 ft | 0 kts | 225° |
| 2026-04-16 12:58 | 10.31390 | 123.97924 | 36 ft | 5 kts | 225° |
| 2026-04-16 12:58 | 10.31347 | 123.97899 | 36 ft | 9 kts | 187° |
| 2026-04-16 12:59 | 10.31284 | 123.97938 | 36 ft | 11 kts | 136° |
| 2026-04-16 12:59 | 10.31217 | 123.97980 | 36 ft | 11 kts | 185° |
| 2026-04-16 12:59 | 10.31151 | 123.97929 | 36 ft | 12 kts | 225° |
| 2026-04-16 13:00 | 10.31017 | 123.97794 | 36 ft | 15 kts | 225° |
| 2026-04-16 13:00 | 10.30940 | 123.97716 | 36 ft | 16 kts | 225° |
| 2026-04-16 13:00 | 10.30852 | 123.97627 | 36 ft | 19 kts | 225° |
| 2026-04-16 13:00 | 10.30753 | 123.97528 | 36 ft | 20 kts | 225° |
| 2026-04-16 13:01 | 10.30650 | 123.97425 | 36 ft | 20 kts | 224° |
| 2026-04-16 13:01 | 10.30549 | 123.97324 | 36 ft | 21 kts | 224° |
| 2026-04-16 13:01 | 10.30444 | 123.97219 | 36 ft | 20 kts | 224° |
| 2026-04-16 13:01 | 10.30341 | 123.97117 | 36 ft | 20 kts | 225° |
| 2026-04-16 13:02 | 10.30243 | 123.97016 | 36 ft | 19 kts | 223° |
| 2026-04-16 13:02 | 10.30141 | 123.96917 | 36 ft | 21 kts | 224° |
| 2026-04-16 13:02 | 10.30036 | 123.96812 | 36 ft | 20 kts | 224° |
| 2026-04-16 13:02 | 10.29942 | 123.96719 | 36 ft | 14 kts | 220° |
| 2026-04-16 13:03 | 10.29858 | 123.96732 | 36 ft | 14 kts | 136° |
| 2026-04-16 13:03 | 10.29794 | 123.96797 | 36 ft | 13 kts | 134° |
| 2026-04-16 13:03 | 10.29731 | 123.96863 | 36 ft | 7 kts | 134° |
| 2026-04-16 13:03 | 10.29726 | 123.96908 | 36 ft | 8 kts | 55° |
| 2026-04-16 13:04 | 10.29842 | 123.97025 | 36 ft | 54 kts | 45° |
| 2026-04-16 13:04 | 10.30283 | 123.97469 | 36 ft | 121 kts | 44° |
| 2026-04-16 13:04 | 10.31011 | 123.98199 | 139 ft | 164 kts | 44° |
| 2026-04-16 13:04 | 10.31827 | 123.99020 | 663 ft | 169 kts | 45° |
| 2026-04-16 13:05 | 10.32656 | 123.99865 | 1286 ft | 172 kts | 45° |
| 2026-04-16 13:05 | 10.33499 | 124.00726 | 1897 ft | 175 kts | 45° |
| 2026-04-16 13:05 | 10.34395 | 124.01638 | 2224 ft | 188 kts | 45° |
| 2026-04-16 13:05 | 10.35442 | 124.02484 | 2500 ft | 203 kts | 21° |
| 2026-04-16 13:06 | 10.36859 | 124.02516 | 2719 ft | 220 kts | 337° |
| 2026-04-16 13:06 | 10.38198 | 124.01619 | 3057 ft | 237 kts | 321° |
| 2026-04-16 13:06 | 10.39535 | 124.00563 | 3423 ft | 255 kts | 323° |
| 2026-04-16 13:06 | 10.41013 | 123.99451 | 3845 ft | 270 kts | 324° |
| 2026-04-16 13:07 | 10.42541 | 123.98338 | 4530 ft | 274 kts | 324° |
| 2026-04-16 13:07 | 10.44086 | 123.97229 | 5277 ft | 276 kts | 324° |
| 2026-04-16 13:07 | 10.45660 | 123.96107 | 6017 ft | 280 kts | 325° |
| 2026-04-16 13:07 | 10.47247 | 123.94979 | 6761 ft | 283 kts | 325° |
| 2026-04-16 13:08 | 10.48864 | 123.93832 | 7515 ft | 286 kts | 325° |
| 2026-04-16 13:08 | 10.50493 | 123.92676 | 8273 ft | 289 kts | 325° |
| 2026-04-16 13:08 | 10.52124 | 123.91519 | 9023 ft | 292 kts | 325° |
| 2026-04-16 13:08 | 10.53796 | 123.90333 | 9770 ft | 295 kts | 325° |
| 2026-04-16 13:09 | 10.55470 | 123.89146 | 10456 ft | 300 kts | 325° |
| 2026-04-16 13:09 | 10.57224 | 123.87901 | 10831 ft | 316 kts | 325° |
| 2026-04-16 13:09 | 10.58949 | 123.86424 | 11124 ft | 333 kts | 311° |
| 2026-04-16 13:09 | 10.60284 | 123.84437 | 11420 ft | 349 kts | 299° |
| 2026-04-16 13:10 | 10.61441 | 123.82221 | 11766 ft | 362 kts | 297° |
| 2026-04-16 13:10 | 10.62598 | 123.79927 | 12340 ft | 367 kts | 297° |
| 2026-04-16 13:10 | 10.63765 | 123.77616 | 12977 ft | 369 kts | 297° |
| 2026-04-16 13:10 | 10.64934 | 123.75318 | 13571 ft | 372 kts | 297° |
| 2026-04-16 13:11 | 10.66137 | 123.72967 | 14155 ft | 376 kts | 297° |
| 2026-04-16 13:11 | 10.67339 | 123.70628 | 14722 ft | 379 kts | 297° |
| 2026-04-16 13:11 | 10.68569 | 123.68239 | 15284 ft | 382 kts | 297° |
| 2026-04-16 13:11 | 10.69796 | 123.65857 | 15826 ft | 385 kts | 297° |
| 2026-04-16 13:12 | 10.71041 | 123.63444 | 16358 ft | 388 kts | 297° |
| 2026-04-16 13:12 | 10.72306 | 123.60989 | 16880 ft | 391 kts | 297° |
| 2026-04-16 13:12 | 10.73554 | 123.58569 | 17379 ft | 394 kts | 297° |
| 2026-04-16 13:12 | 10.74841 | 123.56074 | 17876 ft | 397 kts | 297° |
| 2026-04-16 13:13 | 10.76120 | 123.53593 | 18353 ft | 399 kts | 297° |
| 2026-04-16 13:13 | 10.77406 | 123.51098 | 18817 ft | 402 kts | 297° |
| 2026-04-16 13:13 | 10.78705 | 123.48576 | 19271 ft | 405 kts | 297° |
| 2026-04-16 13:13 | 10.80006 | 123.46050 | 19705 ft | 408 kts | 297° |
| 2026-04-16 13:14 | 10.81323 | 123.43493 | 19904 ft | 409 kts | 297° |
| 2026-04-16 13:14 | 10.82648 | 123.40919 | 19907 ft | 409 kts | 297° |
| 2026-04-16 13:14 | 10.83967 | 123.38357 | 19909 ft | 409 kts | 297° |
| 2026-04-16 13:14 | 10.85268 | 123.35830 | 19910 ft | 409 kts | 297° |
| 2026-04-16 13:15 | 10.86596 | 123.33249 | 19911 ft | 409 kts | 297° |
| 2026-04-16 13:15 | 10.87898 | 123.30718 | 19911 ft | 409 kts | 297° |
| 2026-04-16 13:15 | 10.89223 | 123.28142 | 19911 ft | 409 kts | 297° |
| 2026-04-16 13:15 | 10.90534 | 123.25594 | 19911 ft | 409 kts | 297° |
| 2026-04-16 13:16 | 10.91848 | 123.23037 | 19831 ft | 410 kts | 297° |
| 2026-04-16 13:16 | 10.93171 | 123.20463 | 19181 ft | 410 kts | 297° |
| 2026-04-16 13:16 | 10.94481 | 123.17913 | 18534 ft | 408 kts | 297° |
| 2026-04-16 13:16 | 10.95780 | 123.15384 | 17914 ft | 406 kts | 297° |
| 2026-04-16 13:17 | 10.97071 | 123.12841 | 17298 ft | 404 kts | 295° |
| 2026-04-16 13:17 | 10.98092 | 123.10181 | 16688 ft | 401 kts | 288° |
| 2026-04-16 13:17 | 10.98938 | 123.07495 | 16089 ft | 399 kts | 287° |
| 2026-04-16 13:17 | 10.99754 | 123.04802 | 15488 ft | 397 kts | 287° |
| 2026-04-16 13:18 | 11.00557 | 123.02148 | 14895 ft | 394 kts | 287° |
| 2026-04-16 13:18 | 11.01368 | 122.99483 | 14299 ft | 392 kts | 287° |
| 2026-04-16 13:18 | 11.02164 | 122.96880 | 13718 ft | 389 kts | 287° |
| 2026-04-16 13:18 | 11.02973 | 122.94247 | 13128 ft | 386 kts | 287° |
| 2026-04-16 13:19 | 11.03758 | 122.91692 | 12555 ft | 382 kts | 287° |
| 2026-04-16 13:19 | 11.04556 | 122.89099 | 11971 ft | 379 kts | 287° |
| 2026-04-16 13:19 | 11.05330 | 122.86584 | 11405 ft | 375 kts | 287° |
| 2026-04-16 13:19 | 11.06103 | 122.84074 | 10838 ft | 371 kts | 287° |
| 2026-04-16 13:20 | 11.06873 | 122.81574 | 10361 ft | 364 kts | 287° |
| 2026-04-16 13:20 | 11.07614 | 122.79164 | 9858 ft | 346 kts | 287° |
| 2026-04-16 13:20 | 11.08305 | 122.76922 | 9276 ft | 328 kts | 287° |
| 2026-04-16 13:20 | 11.08966 | 122.74773 | 8759 ft | 311 kts | 287° |
| 2026-04-16 13:21 | 11.09602 | 122.72706 | 8276 ft | 296 kts | 287° |
| 2026-04-16 13:21 | 11.10208 | 122.70735 | 7819 ft | 296 kts | 287° |
| 2026-04-16 13:21 | 11.10812 | 122.68772 | 7379 ft | 288 kts | 287° |
| 2026-04-16 13:21 | 11.11413 | 122.66816 | 6935 ft | 288 kts | 287° |
| 2026-04-16 13:22 | 11.12003 | 122.64896 | 6506 ft | 281 kts | 287° |
| 2026-04-16 13:22 | 11.12343 | 122.62933 | 6040 ft | 282 kts | 266° |
| 2026-04-16 13:22 | 11.11826 | 122.61050 | 5574 ft | 283 kts | 239° |
| 2026-04-16 13:22 | 11.10530 | 122.59583 | 5140 ft | 282 kts | 214° |
| 2026-04-16 13:23 | 11.08793 | 122.58679 | 4752 ft | 281 kts | 201° |
| 2026-04-16 13:23 | 11.06945 | 122.58019 | 4355 ft | 279 kts | 198° |
| 2026-04-16 13:23 | 11.05118 | 122.57400 | 3969 ft | 278 kts | 199° |
| 2026-04-16 13:23 | 11.03306 | 122.56760 | 3595 ft | 269 kts | 200° |
| 2026-04-16 13:24 | 11.01597 | 122.56134 | 3303 ft | 251 kts | 200° |
| 2026-04-16 13:24 | 11.00024 | 122.55547 | 3304 ft | 235 kts | 200° |
| 2026-04-16 13:24 | 10.98537 | 122.54992 | 3313 ft | 219 kts | 200° |
| 2026-04-16 13:24 | 10.97155 | 122.54476 | 3264 ft | 209 kts | 200° |
| 2026-04-16 13:25 | 10.95794 | 122.53970 | 3019 ft | 203 kts | 200° |
| 2026-04-16 13:25 | 10.94523 | 122.53497 | 2704 ft | 194 kts | 200° |
| 2026-04-16 13:25 | 10.93290 | 122.53040 | 2387 ft | 185 kts | 200° |
| 2026-04-16 13:25 | 10.92124 | 122.52607 | 2069 ft | 173 kts | 200° |
| 2026-04-16 13:26 | 10.91018 | 122.52196 | 1705 ft | 168 kts | 200° |
| 2026-04-16 13:26 | 10.89947 | 122.51799 | 1362 ft | 159 kts | 200° |
| 2026-04-16 13:26 | 10.88957 | 122.51432 | 1132 ft | 147 kts | 200° |
| 2026-04-16 13:26 | 10.88002 | 122.51079 | 947 ft | 145 kts | 200° |
| 2026-04-16 13:27 | 10.87054 | 122.50727 | 765 ft | 145 kts | 200° |
| 2026-04-16 13:27 | 10.86108 | 122.50376 | 574 ft | 144 kts | 200° |
| 2026-04-16 13:27 | 10.85170 | 122.50029 | 382 ft | 144 kts | 200° |
| 2026-04-16 13:27 | 10.84231 | 122.49681 | 198 ft | 144 kts | 200° |
| 2026-04-16 13:28 | 10.83412 | 122.49378 | 175 ft | 90 kts | 200° |
| 2026-04-16 13:28 | 10.83100 | 122.49262 | 175 ft | 15 kts | 196° |
| 2026-04-16 13:28 | 10.83012 | 122.49220 | 175 ft | 11 kts | 228° |
| 2026-04-16 13:28 | 10.82998 | 122.49226 | 175 ft | 7 kts | 19° |
| 2026-04-16 13:29 | 10.83052 | 122.49244 | 175 ft | 9 kts | 19° |
| 2026-04-16 13:29 | 10.83093 | 122.49296 | 175 ft | 10 kts | 94° |
| 2026-04-16 13:29 | 10.83067 | 122.49368 | 175 ft | 11 kts | 110° |
| 2026-04-16 13:29 | 10.83040 | 122.49447 | 175 ft | 12 kts | 110° |
| 2026-04-16 13:30 | 10.83045 | 122.49527 | 175 ft | 12 kts | 42° |
| 2026-04-16 13:30 | 10.83119 | 122.49559 | 175 ft | 7 kts | 20° |
| 2026-04-16 13:30 | 10.83134 | 122.49595 | 175 ft | 5 kts | 112° |
| 2026-04-16 13:30 | 10.83122 | 122.49626 | 175 ft | 3 kts | 110° |
| 2026-04-16 13:31 | 10.83115 | 122.49646 | 175 ft | 2 kts | 110° |
| 2026-04-16 13:31 | 10.83113 | 122.49651 | 175 ft | 0 kts | 110° |